sensor_id;sensor_type;location;lat;lon;timestamp;P1;durP1;ratioP1;P2;durP2;ratioP2
70450;SDS011;58869;51.982;4.450;2024-03-22T00:00:57;48.92;;;46.43;;
70450;SDS011;58869;51.982;4.450;2024-03-22T00:03:23;48.94;;;46.29;;
70450;SDS011;58869;51.982;4.450;2024-03-22T00:05:48;47.16;;;44.70;;
70450;SDS011;58869;51.982;4.450;2024-03-22T00:08:13;44.03;;;41.64;;
70450;SDS011;58869;51.982;4.450;2024-03-22T00:10:39;44.10;;;41.41;;
70450;SDS011;58869;51.982;4.450;2024-03-22T00:13:04;41.28;;;39.35;;
70450;SDS011;58869;51.982;4.450;2024-03-22T00:15:30;42.20;;;40.54;;
70450;SDS011;58869;51.982;4.450;2024-03-22T00:17:55;41.24;;;39.70;;
70450;SDS011;58869;51.982;4.450;2024-03-22T00:20:21;41.50;;;40.02;;
70450;SDS011;58869;51.982;4.450;2024-03-22T00:22:46;42.97;;;41.64;;
70450;SDS011;58869;51.982;4.450;2024-03-22T00:25:12;43.14;;;41.97;;
70450;SDS011;58869;51.982;4.450;2024-03-22T00:27:37;43.86;;;42.37;;
70450;SDS011;58869;51.982;4.450;2024-03-22T00:30:03;43.74;;;42.39;;
70450;SDS011;58869;51.982;4.450;2024-03-22T00:32:29;44.65;;;43.50;;
70450;SDS011;58869;51.982;4.450;2024-03-22T00:34:54;46.98;;;45.56;;
70450;SDS011;58869;51.982;4.450;2024-03-22T00:37:20;48.82;;;47.16;;
70450;SDS011;58869;51.982;4.450;2024-03-22T00:39:45;52.57;;;50.00;;
70450;SDS011;58869;51.982;4.450;2024-03-22T00:42:11;52.60;;;49.93;;
70450;SDS011;58869;51.982;4.450;2024-03-22T00:44:36;53.16;;;50.57;;
70450;SDS011;58869;51.982;4.450;2024-03-22T00:47:02;54.14;;;50.97;;
70450;SDS011;58869;51.982;4.450;2024-03-22T00:49:28;51.38;;;48.66;;
70450;SDS011;58869;51.982;4.450;2024-03-22T00:51:54;52.95;;;49.85;;
70450;SDS011;58869;51.982;4.450;2024-03-22T00:54:21;54.71;;;51.58;;
70450;SDS011;58869;51.982;4.450;2024-03-22T00:56:47;53.24;;;50.60;;
70450;SDS011;58869;51.982;4.450;2024-03-22T00:59:12;49.34;;;46.56;;
70450;SDS011;58869;51.982;4.450;2024-03-22T01:01:38;45.38;;;42.26;;
70450;SDS011;58869;51.982;4.450;2024-03-22T01:04:04;43.19;;;40.00;;
70450;SDS011;58869;51.982;4.450;2024-03-22T01:06:29;41.03;;;38.67;;
70450;SDS011;58869;51.982;4.450;2024-03-22T01:08:55;42.34;;;39.70;;
70450;SDS011;58869;51.982;4.450;2024-03-22T01:11:20;42.63;;;39.81;;
70450;SDS011;58869;51.982;4.450;2024-03-22T01:13:46;42.60;;;40.18;;
70450;SDS011;58869;51.982;4.450;2024-03-22T01:16:11;42.48;;;39.98;;
70450;SDS011;58869;51.982;4.450;2024-03-22T01:18:37;42.92;;;40.37;;
70450;SDS011;58869;51.982;4.450;2024-03-22T01:21:02;42.46;;;40.18;;
70450;SDS011;58869;51.982;4.450;2024-03-22T01:23:28;42.24;;;39.72;;
70450;SDS011;58869;51.982;4.450;2024-03-22T01:25:54;42.19;;;40.04;;
70450;SDS011;58869;51.982;4.450;2024-03-22T01:28:19;42.05;;;40.00;;
70450;SDS011;58869;51.982;4.450;2024-03-22T01:30:46;40.57;;;38.81;;
70450;SDS011;58869;51.982;4.450;2024-03-22T01:33:12;39.50;;;37.84;;
70450;SDS011;58869;51.982;4.450;2024-03-22T01:35:37;40.18;;;38.61;;
70450;SDS011;58869;51.982;4.450;2024-03-22T01:38:04;41.22;;;39.32;;
70450;SDS011;58869;51.982;4.450;2024-03-22T01:40:29;39.40;;;38.01;;
70450;SDS011;58869;51.982;4.450;2024-03-22T01:42:55;39.51;;;37.85;;
70450;SDS011;58869;51.982;4.450;2024-03-22T01:45:21;40.01;;;37.99;;
70450;SDS011;58869;51.982;4.450;2024-03-22T01:47:52;37.85;;;36.37;;
70450;SDS011;58869;51.982;4.450;2024-03-22T01:50:21;35.88;;;34.90;;
70450;SDS011;58869;51.982;4.450;2024-03-22T01:52:47;35.22;;;34.14;;
70450;SDS011;58869;51.982;4.450;2024-03-22T01:55:13;34.99;;;33.85;;
70450;SDS011;58869;51.982;4.450;2024-03-22T01:57:38;34.25;;;32.75;;
70450;SDS011;58869;51.982;4.450;2024-03-22T02:00:05;30.91;;;29.84;;
70450;SDS011;58869;51.982;4.450;2024-03-22T02:02:31;32.59;;;31.38;;
70450;SDS011;58869;51.982;4.450;2024-03-22T02:04:56;32.46;;;31.15;;
70450;SDS011;58869;51.982;4.450;2024-03-22T02:07:22;31.97;;;30.68;;
70450;SDS011;58869;51.982;4.450;2024-03-22T02:09:47;31.40;;;30.18;;
70450;SDS011;58869;51.982;4.450;2024-03-22T02:12:13;30.32;;;29.36;;
70450;SDS011;58869;51.982;4.450;2024-03-22T02:14:41;30.64;;;29.55;;
70450;SDS011;58869;51.982;4.450;2024-03-22T02:17:06;30.12;;;28.94;;
70450;SDS011;58869;51.982;4.450;2024-03-22T02:19:32;29.91;;;28.89;;
70450;SDS011;58869;51.982;4.450;2024-03-22T02:22:00;30.21;;;29.08;;
70450;SDS011;58869;51.982;4.450;2024-03-22T02:24:26;30.19;;;28.92;;
70450;SDS011;58869;51.982;4.450;2024-03-22T02:26:51;30.01;;;28.98;;
70450;SDS011;58869;51.982;4.450;2024-03-22T02:29:16;28.99;;;28.28;;
70450;SDS011;58869;51.982;4.450;2024-03-22T02:31:42;29.00;;;28.18;;
70450;SDS011;58869;51.982;4.450;2024-03-22T02:34:07;30.42;;;29.74;;
70450;SDS011;58869;51.982;4.450;2024-03-22T02:36:33;29.72;;;29.14;;
70450;SDS011;58869;51.982;4.450;2024-03-22T02:38:58;29.44;;;28.83;;
70450;SDS011;58869;51.982;4.450;2024-03-22T02:41:24;30.03;;;29.42;;
70450;SDS011;58869;51.982;4.450;2024-03-22T02:43:49;29.01;;;28.37;;
70450;SDS011;58869;51.982;4.450;2024-03-22T02:46:15;29.07;;;28.59;;
70450;SDS011;58869;51.982;4.450;2024-03-22T02:48:40;29.19;;;28.78;;
70450;SDS011;58869;51.982;4.450;2024-03-22T02:51:05;27.35;;;26.89;;
70450;SDS011;58869;51.982;4.450;2024-03-22T02:53:31;26.98;;;26.53;;
70450;SDS011;58869;51.982;4.450;2024-03-22T02:55:59;26.85;;;26.62;;
70450;SDS011;58869;51.982;4.450;2024-03-22T02:58:25;28.61;;;27.91;;
70450;SDS011;58869;51.982;4.450;2024-03-22T03:00:51;28.29;;;27.91;;
70450;SDS011;58869;51.982;4.450;2024-03-22T03:03:17;28.01;;;27.57;;
70450;SDS011;58869;51.982;4.450;2024-03-22T03:05:45;28.89;;;28.33;;
70450;SDS011;58869;51.982;4.450;2024-03-22T03:08:12;28.73;;;28.25;;
70450;SDS011;58869;51.982;4.450;2024-03-22T03:10:40;27.92;;;27.44;;
70450;SDS011;58869;51.982;4.450;2024-03-22T03:13:10;26.51;;;26.12;;
70450;SDS011;58869;51.982;4.450;2024-03-22T03:15:35;26.53;;;25.96;;
70450;SDS011;58869;51.982;4.450;2024-03-22T03:18:00;25.85;;;25.66;;
70450;SDS011;58869;51.982;4.450;2024-03-22T03:20:26;24.18;;;24.02;;
70450;SDS011;58869;51.982;4.450;2024-03-22T03:22:52;22.65;;;22.43;;
70450;SDS011;58869;51.982;4.450;2024-03-22T03:25:17;22.93;;;22.69;;
70450;SDS011;58869;51.982;4.450;2024-03-22T03:27:42;22.13;;;21.90;;
70450;SDS011;58869;51.982;4.450;2024-03-22T03:30:08;22.22;;;21.79;;
70450;SDS011;58869;51.982;4.450;2024-03-22T03:32:34;21.00;;;20.80;;
70450;SDS011;58869;51.982;4.450;2024-03-22T03:34:59;22.06;;;21.75;;
70450;SDS011;58869;51.982;4.450;2024-03-22T03:37:25;21.84;;;21.49;;
70450;SDS011;58869;51.982;4.450;2024-03-22T03:39:50;22.27;;;22.02;;
70450;SDS011;58869;51.982;4.450;2024-03-22T03:42:16;21.80;;;21.21;;
70450;SDS011;58869;51.982;4.450;2024-03-22T03:44:41;21.33;;;20.72;;
70450;SDS011;58869;51.982;4.450;2024-03-22T03:47:07;19.59;;;19.34;;
70450;SDS011;58869;51.982;4.450;2024-03-22T03:49:32;18.97;;;18.66;;
70450;SDS011;58869;51.982;4.450;2024-03-22T03:51:58;18.60;;;18.25;;
70450;SDS011;58869;51.982;4.450;2024-03-22T03:54:23;18.02;;;17.82;;
70450;SDS011;58869;51.982;4.450;2024-03-22T03:56:49;18.61;;;18.36;;
70450;SDS011;58869;51.982;4.450;2024-03-22T03:59:14;18.51;;;18.39;;
70450;SDS011;58869;51.982;4.450;2024-03-22T04:01:40;18.97;;;18.76;;
70450;SDS011;58869;51.982;4.450;2024-03-22T04:04:05;19.34;;;19.13;;
70450;SDS011;58869;51.982;4.450;2024-03-22T04:06:31;20.02;;;19.80;;
70450;SDS011;58869;51.982;4.450;2024-03-22T04:08:56;20.88;;;20.51;;
70450;SDS011;58869;51.982;4.450;2024-03-22T04:11:22;21.31;;;20.85;;
70450;SDS011;58869;51.982;4.450;2024-03-22T04:13:48;22.06;;;21.65;;
70450;SDS011;58869;51.982;4.450;2024-03-22T04:16:14;21.98;;;21.55;;
70450;SDS011;58869;51.982;4.450;2024-03-22T04:18:39;22.72;;;22.20;;
70450;SDS011;58869;51.982;4.450;2024-03-22T04:21:04;21.87;;;21.54;;
70450;SDS011;58869;51.982;4.450;2024-03-22T04:23:30;23.00;;;22.52;;
70450;SDS011;58869;51.982;4.450;2024-03-22T04:25:59;23.13;;;22.62;;
70450;SDS011;58869;51.982;4.450;2024-03-22T04:28:26;23.78;;;23.13;;
70450;SDS011;58869;51.982;4.450;2024-03-22T04:31:02;23.67;;;23.39;;
70450;SDS011;58869;51.982;4.450;2024-03-22T04:33:31;22.85;;;22.52;;
70450;SDS011;58869;51.982;4.450;2024-03-22T04:35:57;22.22;;;21.88;;
70450;SDS011;58869;51.982;4.450;2024-03-22T04:38:24;21.41;;;21.07;;
70450;SDS011;58869;51.982;4.450;2024-03-22T04:40:50;21.32;;;20.97;;
70450;SDS011;58869;51.982;4.450;2024-03-22T04:43:16;21.05;;;20.77;;
70450;SDS011;58869;51.982;4.450;2024-03-22T04:45:42;20.50;;;20.30;;
70450;SDS011;58869;51.982;4.450;2024-03-22T04:48:08;20.82;;;20.44;;
70450;SDS011;58869;51.982;4.450;2024-03-22T04:50:34;19.71;;;19.39;;
70450;SDS011;58869;51.982;4.450;2024-03-22T04:53:00;19.83;;;19.61;;
70450;SDS011;58869;51.982;4.450;2024-03-22T04:55:26;20.67;;;20.46;;
70450;SDS011;58869;51.982;4.450;2024-03-22T04:57:52;22.47;;;22.21;;
70450;SDS011;58869;51.982;4.450;2024-03-22T05:00:17;23.11;;;22.99;;
70450;SDS011;58869;51.982;4.450;2024-03-22T05:02:43;24.83;;;24.55;;
70450;SDS011;58869;51.982;4.450;2024-03-22T05:05:09;26.20;;;25.57;;
70450;SDS011;58869;51.982;4.450;2024-03-22T05:07:35;24.91;;;24.57;;
70450;SDS011;58869;51.982;4.450;2024-03-22T05:10:01;24.60;;;24.26;;
70450;SDS011;58869;51.982;4.450;2024-03-22T05:12:26;25.55;;;25.10;;
70450;SDS011;58869;51.982;4.450;2024-03-22T05:14:52;25.07;;;24.55;;
70450;SDS011;58869;51.982;4.450;2024-03-22T05:17:17;24.28;;;23.85;;
70450;SDS011;58869;51.982;4.450;2024-03-22T05:19:43;23.61;;;23.10;;
70450;SDS011;58869;51.982;4.450;2024-03-22T05:22:08;22.10;;;21.57;;
70450;SDS011;58869;51.982;4.450;2024-03-22T05:24:34;20.80;;;20.51;;
70450;SDS011;58869;51.982;4.450;2024-03-22T05:26:59;21.09;;;20.60;;
70450;SDS011;58869;51.982;4.450;2024-03-22T05:29:28;21.36;;;20.88;;
70450;SDS011;58869;51.982;4.450;2024-03-22T05:31:53;22.04;;;21.57;;
70450;SDS011;58869;51.982;4.450;2024-03-22T05:34:19;22.00;;;21.76;;
70450;SDS011;58869;51.982;4.450;2024-03-22T05:36:48;23.10;;;22.89;;
70450;SDS011;58869;51.982;4.450;2024-03-22T05:39:13;23.54;;;23.24;;
70450;SDS011;58869;51.982;4.450;2024-03-22T05:41:39;24.40;;;24.03;;
70450;SDS011;58869;51.982;4.450;2024-03-22T05:44:05;24.43;;;24.04;;
70450;SDS011;58869;51.982;4.450;2024-03-22T05:46:31;26.41;;;25.83;;
70450;SDS011;58869;51.982;4.450;2024-03-22T05:48:57;25.24;;;24.86;;
70450;SDS011;58869;51.982;4.450;2024-03-22T05:51:24;24.82;;;24.43;;
70450;SDS011;58869;51.982;4.450;2024-03-22T05:53:52;24.20;;;23.88;;
70450;SDS011;58869;51.982;4.450;2024-03-22T05:56:17;23.90;;;23.54;;
70450;SDS011;58869;51.982;4.450;2024-03-22T05:58:43;24.61;;;24.18;;
70450;SDS011;58869;51.982;4.450;2024-03-22T06:01:08;25.42;;;24.81;;
70450;SDS011;58869;51.982;4.450;2024-03-22T06:03:34;24.82;;;24.23;;
70450;SDS011;58869;51.982;4.450;2024-03-22T06:05:59;26.11;;;25.33;;
70450;SDS011;58869;51.982;4.450;2024-03-22T06:08:28;25.69;;;25.07;;
70450;SDS011;58869;51.982;4.450;2024-03-22T06:10:56;25.65;;;24.90;;
70450;SDS011;58869;51.982;4.450;2024-03-22T06:13:22;25.67;;;25.00;;
70450;SDS011;58869;51.982;4.450;2024-03-22T06:15:49;24.78;;;24.10;;
70450;SDS011;58869;51.982;4.450;2024-03-22T06:18:14;24.11;;;23.35;;
70450;SDS011;58869;51.982;4.450;2024-03-22T06:20:40;25.06;;;24.05;;
70450;SDS011;58869;51.982;4.450;2024-03-22T06:23:07;24.84;;;24.09;;
70450;SDS011;58869;51.982;4.450;2024-03-22T06:25:32;24.87;;;24.29;;
70450;SDS011;58869;51.982;4.450;2024-03-22T06:28:01;24.80;;;24.16;;
70450;SDS011;58869;51.982;4.450;2024-03-22T06:30:27;24.55;;;23.67;;
70450;SDS011;58869;51.982;4.450;2024-03-22T06:32:52;24.08;;;23.49;;
70450;SDS011;58869;51.982;4.450;2024-03-22T06:35:18;22.84;;;22.41;;
70450;SDS011;58869;51.982;4.450;2024-03-22T06:37:44;23.40;;;22.78;;
70450;SDS011;58869;51.982;4.450;2024-03-22T06:40:10;23.42;;;22.77;;
70450;SDS011;58869;51.982;4.450;2024-03-22T06:42:37;23.84;;;23.11;;
70450;SDS011;58869;51.982;4.450;2024-03-22T06:45:03;23.51;;;22.72;;
70450;SDS011;58869;51.982;4.450;2024-03-22T06:47:29;22.67;;;22.21;;
70450;SDS011;58869;51.982;4.450;2024-03-22T06:49:54;22.38;;;21.90;;
70450;SDS011;58869;51.982;4.450;2024-03-22T06:52:20;20.50;;;20.11;;
70450;SDS011;58869;51.982;4.450;2024-03-22T06:54:46;19.71;;;19.40;;
70450;SDS011;58869;51.982;4.450;2024-03-22T06:57:11;18.98;;;18.65;;
70450;SDS011;58869;51.982;4.450;2024-03-22T06:59:37;18.42;;;18.05;;
70450;SDS011;58869;51.982;4.450;2024-03-22T07:02:03;17.43;;;17.13;;
70450;SDS011;58869;51.982;4.450;2024-03-22T07:04:28;17.32;;;17.07;;
70450;SDS011;58869;51.982;4.450;2024-03-22T07:06:56;17.39;;;17.19;;
70450;SDS011;58869;51.982;4.450;2024-03-22T07:09:22;16.65;;;16.44;;
70450;SDS011;58869;51.982;4.450;2024-03-22T07:11:48;16.69;;;16.32;;
70450;SDS011;58869;51.982;4.450;2024-03-22T07:14:13;16.10;;;15.91;;
70450;SDS011;58869;51.982;4.450;2024-03-22T07:16:39;15.89;;;15.72;;
70450;SDS011;58869;51.982;4.450;2024-03-22T07:19:04;15.51;;;15.29;;
70450;SDS011;58869;51.982;4.450;2024-03-22T07:21:31;15.68;;;15.40;;
70450;SDS011;58869;51.982;4.450;2024-03-22T07:23:56;16.51;;;16.34;;
70450;SDS011;58869;51.982;4.450;2024-03-22T07:26:21;15.56;;;15.40;;
70450;SDS011;58869;51.982;4.450;2024-03-22T07:28:47;16.06;;;15.86;;
70450;SDS011;58869;51.982;4.450;2024-03-22T07:31:12;15.82;;;15.63;;
70450;SDS011;58869;51.982;4.450;2024-03-22T07:33:39;15.29;;;15.09;;
70450;SDS011;58869;51.982;4.450;2024-03-22T07:36:05;15.25;;;14.95;;
70450;SDS011;58869;51.982;4.450;2024-03-22T07:38:31;14.93;;;14.67;;
70450;SDS011;58869;51.982;4.450;2024-03-22T07:40:56;14.69;;;14.30;;
70450;SDS011;58869;51.982;4.450;2024-03-22T07:43:22;13.71;;;13.41;;
70450;SDS011;58869;51.982;4.450;2024-03-22T07:45:47;14.29;;;14.09;;
70450;SDS011;58869;51.982;4.450;2024-03-22T07:48:13;14.37;;;14.02;;
70450;SDS011;58869;51.982;4.450;2024-03-22T07:50:38;13.95;;;13.66;;
70450;SDS011;58869;51.982;4.450;2024-03-22T07:53:04;13.96;;;13.69;;
70450;SDS011;58869;51.982;4.450;2024-03-22T07:55:32;13.35;;;12.96;;
70450;SDS011;58869;51.982;4.450;2024-03-22T07:57:57;13.82;;;13.48;;
70450;SDS011;58869;51.982;4.450;2024-03-22T08:00:23;14.80;;;14.40;;
70450;SDS011;58869;51.982;4.450;2024-03-22T08:02:52;15.00;;;14.50;;
70450;SDS011;58869;51.982;4.450;2024-03-22T08:05:18;14.46;;;14.09;;
70450;SDS011;58869;51.982;4.450;2024-03-22T08:07:44;14.92;;;14.41;;
70450;SDS011;58869;51.982;4.450;2024-03-22T08:10:13;14.91;;;14.49;;
70450;SDS011;58869;51.982;4.450;2024-03-22T08:12:41;15.23;;;14.81;;
70450;SDS011;58869;51.982;4.450;2024-03-22T08:15:09;14.15;;;13.73;;
70450;SDS011;58869;51.982;4.450;2024-03-22T08:17:34;14.55;;;14.17;;
70450;SDS011;58869;51.982;4.450;2024-03-22T08:20:00;13.99;;;13.70;;
70450;SDS011;58869;51.982;4.450;2024-03-22T08:22:25;14.72;;;14.33;;
70450;SDS011;58869;51.982;4.450;2024-03-22T08:24:51;13.99;;;13.71;;
70450;SDS011;58869;51.982;4.450;2024-03-22T08:27:16;14.32;;;13.99;;
70450;SDS011;58869;51.982;4.450;2024-03-22T08:29:42;14.82;;;14.35;;
70450;SDS011;58869;51.982;4.450;2024-03-22T08:32:07;14.05;;;13.75;;
70450;SDS011;58869;51.982;4.450;2024-03-22T08:34:33;14.00;;;13.70;;
70450;SDS011;58869;51.982;4.450;2024-03-22T08:36:58;14.15;;;13.78;;
70450;SDS011;58869;51.982;4.450;2024-03-22T08:39:24;14.16;;;13.71;;
70450;SDS011;58869;51.982;4.450;2024-03-22T08:41:49;14.19;;;13.83;;
70450;SDS011;58869;51.982;4.450;2024-03-22T08:44:16;14.88;;;14.62;;
70450;SDS011;58869;51.982;4.450;2024-03-22T08:46:42;14.51;;;14.17;;
70450;SDS011;58869;51.982;4.450;2024-03-22T08:49:07;14.10;;;13.87;;
70450;SDS011;58869;51.982;4.450;2024-03-22T08:51:32;14.54;;;14.15;;
70450;SDS011;58869;51.982;4.450;2024-03-22T08:53:58;13.58;;;13.26;;
70450;SDS011;58869;51.982;4.450;2024-03-22T08:56:24;13.84;;;13.67;;
70450;SDS011;58869;51.982;4.450;2024-03-22T08:58:49;14.32;;;14.12;;
70450;SDS011;58869;51.982;4.450;2024-03-22T09:01:15;14.99;;;14.68;;
70450;SDS011;58869;51.982;4.450;2024-03-22T09:03:41;14.76;;;14.65;;
70450;SDS011;58869;51.982;4.450;2024-03-22T09:06:06;15.23;;;15.03;;
70450;SDS011;58869;51.982;4.450;2024-03-22T09:08:32;14.90;;;14.74;;
70450;SDS011;58869;51.982;4.450;2024-03-22T09:10:58;14.62;;;14.35;;
70450;SDS011;58869;51.982;4.450;2024-03-22T09:13:24;14.90;;;14.62;;
70450;SDS011;58869;51.982;4.450;2024-03-22T09:15:55;15.01;;;14.88;;
70450;SDS011;58869;51.982;4.450;2024-03-22T09:18:22;14.75;;;14.58;;
70450;SDS011;58869;51.982;4.450;2024-03-22T09:20:48;14.03;;;13.90;;
70450;SDS011;58869;51.982;4.450;2024-03-22T09:23:13;13.45;;;13.38;;
70450;SDS011;58869;51.982;4.450;2024-03-22T09:25:42;13.22;;;12.95;;
70450;SDS011;58869;51.982;4.450;2024-03-22T09:28:07;13.89;;;13.64;;
70450;SDS011;58869;51.982;4.450;2024-03-22T09:30:33;13.56;;;13.29;;
70450;SDS011;58869;51.982;4.450;2024-03-22T09:33:03;13.14;;;12.89;;
70450;SDS011;58869;51.982;4.450;2024-03-22T09:35:28;13.40;;;13.08;;
70450;SDS011;58869;51.982;4.450;2024-03-22T09:37:54;13.10;;;12.77;;
70450;SDS011;58869;51.982;4.450;2024-03-22T09:40:19;12.91;;;12.59;;
70450;SDS011;58869;51.982;4.450;2024-03-22T09:42:45;13.27;;;13.01;;
70450;SDS011;58869;51.982;4.450;2024-03-22T09:45:14;13.73;;;13.42;;
70450;SDS011;58869;51.982;4.450;2024-03-22T09:47:43;13.56;;;13.23;;
70450;SDS011;58869;51.982;4.450;2024-03-22T09:50:14;13.67;;;13.44;;
70450;SDS011;58869;51.982;4.450;2024-03-22T09:52:40;13.54;;;13.38;;
70450;SDS011;58869;51.982;4.450;2024-03-22T09:55:07;13.39;;;13.25;;
70450;SDS011;58869;51.982;4.450;2024-03-22T09:57:37;13.03;;;12.90;;
70450;SDS011;58869;51.982;4.450;2024-03-22T10:00:07;14.36;;;14.03;;
70450;SDS011;58869;51.982;4.450;2024-03-22T10:02:33;13.06;;;12.88;;
70450;SDS011;58869;51.982;4.450;2024-03-22T10:04:59;13.21;;;13.05;;
70450;SDS011;58869;51.982;4.450;2024-03-22T10:07:29;13.40;;;13.28;;
70450;SDS011;58869;51.982;4.450;2024-03-22T10:09:58;13.58;;;13.43;;
70450;SDS011;58869;51.982;4.450;2024-03-22T10:12:24;13.09;;;13.03;;
70450;SDS011;58869;51.982;4.450;2024-03-22T10:14:52;13.10;;;13.04;;
70450;SDS011;58869;51.982;4.450;2024-03-22T10:17:18;13.14;;;13.09;;
70450;SDS011;58869;51.982;4.450;2024-03-22T10:19:44;14.12;;;14.08;;
70450;SDS011;58869;51.982;4.450;2024-03-22T10:22:09;14.84;;;14.83;;
70450;SDS011;58869;51.982;4.450;2024-03-22T10:24:35;15.66;;;15.65;;
70450;SDS011;58869;51.982;4.450;2024-03-22T10:27:00;15.22;;;15.22;;
70450;SDS011;58869;51.982;4.450;2024-03-22T10:29:26;14.38;;;14.38;;
70450;SDS011;58869;51.982;4.450;2024-03-22T10:31:53;14.98;;;14.98;;
70450;SDS011;58869;51.982;4.450;2024-03-22T10:34:22;15.63;;;15.63;;
70450;SDS011;58869;51.982;4.450;2024-03-22T10:36:50;15.80;;;15.77;;
70450;SDS011;58869;51.982;4.450;2024-03-22T10:39:19;15.97;;;15.97;;
70450;SDS011;58869;51.982;4.450;2024-03-22T10:41:45;16.61;;;16.61;;
70450;SDS011;58869;51.982;4.450;2024-03-22T10:44:11;16.50;;;16.50;;
70450;SDS011;58869;51.982;4.450;2024-03-22T10:46:37;16.57;;;16.56;;
70450;SDS011;58869;51.982;4.450;2024-03-22T10:49:10;17.37;;;17.37;;
70450;SDS011;58869;51.982;4.450;2024-03-22T10:51:41;16.82;;;16.81;;
70450;SDS011;58869;51.982;4.450;2024-03-22T10:54:09;16.64;;;16.64;;
70450;SDS011;58869;51.982;4.450;2024-03-22T10:56:43;17.66;;;17.66;;
70450;SDS011;58869;51.982;4.450;2024-03-22T10:59:13;17.76;;;17.76;;
70450;SDS011;58869;51.982;4.450;2024-03-22T11:01:45;18.22;;;18.22;;
70450;SDS011;58869;51.982;4.450;2024-03-22T11:04:11;18.54;;;18.54;;
70450;SDS011;58869;51.982;4.450;2024-03-22T11:06:37;19.30;;;19.30;;
70450;SDS011;58869;51.982;4.450;2024-03-22T11:09:03;18.76;;;18.76;;
70450;SDS011;58869;51.982;4.450;2024-03-22T11:11:29;18.17;;;18.16;;
70450;SDS011;58869;51.982;4.450;2024-03-22T11:13:56;18.59;;;18.57;;
70450;SDS011;58869;51.982;4.450;2024-03-22T11:16:22;18.01;;;18.00;;
70450;SDS011;58869;51.982;4.450;2024-03-22T11:18:47;18.56;;;18.55;;
70450;SDS011;58869;51.982;4.450;2024-03-22T11:21:16;18.01;;;18.01;;
70450;SDS011;58869;51.982;4.450;2024-03-22T11:23:44;18.33;;;18.33;;
70450;SDS011;58869;51.982;4.450;2024-03-22T11:26:11;18.34;;;18.31;;
70450;SDS011;58869;51.982;4.450;2024-03-22T11:28:37;18.27;;;18.26;;
70450;SDS011;58869;51.982;4.450;2024-03-22T11:31:04;17.80;;;17.77;;
70450;SDS011;58869;51.982;4.450;2024-03-22T11:33:30;18.72;;;18.67;;
70450;SDS011;58869;51.982;4.450;2024-03-22T11:36:00;18.28;;;18.23;;
70450;SDS011;58869;51.982;4.450;2024-03-22T11:38:26;18.12;;;18.04;;
70450;SDS011;58869;51.982;4.450;2024-03-22T11:40:52;17.83;;;17.78;;
70450;SDS011;58869;51.982;4.450;2024-03-22T11:43:20;17.66;;;17.60;;
70450;SDS011;58869;51.982;4.450;2024-03-22T11:45:46;16.95;;;16.95;;
70450;SDS011;58869;51.982;4.450;2024-03-22T11:48:12;18.02;;;17.86;;
70450;SDS011;58869;51.982;4.450;2024-03-22T11:50:39;17.64;;;17.55;;
70450;SDS011;58869;51.982;4.450;2024-03-22T11:53:05;18.34;;;18.21;;
70450;SDS011;58869;51.982;4.450;2024-03-22T11:55:31;18.54;;;18.42;;
70450;SDS011;58869;51.982;4.450;2024-03-22T11:57:58;18.48;;;18.34;;
70450;SDS011;58869;51.982;4.450;2024-03-22T12:00:23;18.72;;;18.65;;
70450;SDS011;58869;51.982;4.450;2024-03-22T12:02:50;17.58;;;17.42;;
70450;SDS011;58869;51.982;4.450;2024-03-22T12:05:20;16.75;;;16.58;;
70450;SDS011;58869;51.982;4.450;2024-03-22T12:07:46;15.45;;;15.36;;
70450;SDS011;58869;51.982;4.450;2024-03-22T12:10:12;14.37;;;14.26;;
70450;SDS011;58869;51.982;4.450;2024-03-22T12:12:37;11.97;;;11.90;;
70450;SDS011;58869;51.982;4.450;2024-03-22T12:15:03;11.52;;;11.49;;
70450;SDS011;58869;51.982;4.450;2024-03-22T12:17:29;13.16;;;13.15;;
70450;SDS011;58869;51.982;4.450;2024-03-22T12:19:55;13.27;;;13.27;;
70450;SDS011;58869;51.982;4.450;2024-03-22T12:22:21;13.76;;;13.68;;
70450;SDS011;58869;51.982;4.450;2024-03-22T12:24:47;13.08;;;13.06;;
70450;SDS011;58869;51.982;4.450;2024-03-22T12:27:13;12.57;;;12.54;;
70450;SDS011;58869;51.982;4.450;2024-03-22T12:29:38;13.29;;;13.16;;
70450;SDS011;58869;51.982;4.450;2024-03-22T12:32:04;14.33;;;13.95;;
70450;SDS011;58869;51.982;4.450;2024-03-22T12:34:31;14.91;;;14.61;;
70450;SDS011;58869;51.982;4.450;2024-03-22T12:36:58;15.35;;;15.33;;
70450;SDS011;58869;51.982;4.450;2024-03-22T12:39:28;14.66;;;14.62;;
70450;SDS011;58869;51.982;4.450;2024-03-22T12:41:54;14.93;;;14.85;;
70450;SDS011;58869;51.982;4.450;2024-03-22T12:44:20;15.79;;;15.73;;
70450;SDS011;58869;51.982;4.450;2024-03-22T12:46:46;16.65;;;16.62;;
70450;SDS011;58869;51.982;4.450;2024-03-22T12:49:11;18.23;;;17.85;;
70450;SDS011;58869;51.982;4.450;2024-03-22T12:51:37;19.08;;;18.72;;
70450;SDS011;58869;51.982;4.450;2024-03-22T12:54:03;17.96;;;17.84;;
70450;SDS011;58869;51.982;4.450;2024-03-22T12:56:32;18.46;;;18.42;;
70450;SDS011;58869;51.982;4.450;2024-03-22T12:58:58;18.96;;;18.95;;
70450;SDS011;58869;51.982;4.450;2024-03-22T13:01:23;19.53;;;19.51;;
70450;SDS011;58869;51.982;4.450;2024-03-22T13:03:49;19.68;;;19.55;;
70450;SDS011;58869;51.982;4.450;2024-03-22T13:06:15;19.14;;;19.09;;
70450;SDS011;58869;51.982;4.450;2024-03-22T13:08:40;19.96;;;19.70;;
70450;SDS011;58869;51.982;4.450;2024-03-22T13:11:05;18.16;;;18.05;;
70450;SDS011;58869;51.982;4.450;2024-03-22T13:13:34;18.10;;;18.07;;
70450;SDS011;58869;51.982;4.450;2024-03-22T13:16:00;18.34;;;18.22;;
70450;SDS011;58869;51.982;4.450;2024-03-22T13:18:28;17.85;;;17.80;;
70450;SDS011;58869;51.982;4.450;2024-03-22T13:20:54;17.31;;;17.21;;
70450;SDS011;58869;51.982;4.450;2024-03-22T13:23:19;17.03;;;16.90;;
70450;SDS011;58869;51.982;4.450;2024-03-22T13:25:45;16.30;;;16.30;;
70450;SDS011;58869;51.982;4.450;2024-03-22T13:28:11;16.50;;;16.50;;
70450;SDS011;58869;51.982;4.450;2024-03-22T13:30:36;16.63;;;16.62;;
70450;SDS011;58869;51.982;4.450;2024-03-22T13:33:02;16.66;;;16.56;;
70450;SDS011;58869;51.982;4.450;2024-03-22T13:35:28;17.09;;;16.87;;
70450;SDS011;58869;51.982;4.450;2024-03-22T13:37:55;16.67;;;16.55;;
70450;SDS011;58869;51.982;4.450;2024-03-22T13:40:21;15.49;;;15.36;;
70450;SDS011;58869;51.982;4.450;2024-03-22T13:42:46;15.60;;;15.59;;
70450;SDS011;58869;51.982;4.450;2024-03-22T13:45:12;15.84;;;15.84;;
70450;SDS011;58869;51.982;4.450;2024-03-22T13:47:42;16.48;;;16.39;;
70450;SDS011;58869;51.982;4.450;2024-03-22T13:50:07;14.94;;;14.88;;
70450;SDS011;58869;51.982;4.450;2024-03-22T13:52:38;14.88;;;14.81;;
70450;SDS011;58869;51.982;4.450;2024-03-22T13:57:55;15.96;;;15.96;;
70450;SDS011;58869;51.982;4.450;2024-03-22T14:00:20;15.92;;;15.80;;
70450;SDS011;58869;51.982;4.450;2024-03-22T14:02:46;16.15;;;15.96;;
70450;SDS011;58869;51.982;4.450;2024-03-22T14:05:17;15.86;;;15.83;;
70450;SDS011;58869;51.982;4.450;2024-03-22T14:07:43;15.51;;;15.51;;
70450;SDS011;58869;51.982;4.450;2024-03-22T14:10:09;15.43;;;15.38;;
70450;SDS011;58869;51.982;4.450;2024-03-22T14:12:38;15.41;;;15.31;;
70450;SDS011;58869;51.982;4.450;2024-03-22T14:15:03;14.96;;;14.85;;
70450;SDS011;58869;51.982;4.450;2024-03-22T14:17:31;15.19;;;15.18;;